Time;durP1;ratioP1;P1;durP2;ratioP2;P2;SDS_P1;SDS_P2;PMS_P1;PMS_P2;Temp;Humidity;BMP_temperature;BMP_pressure;BME280_temperature;BME280_humidity;BME280_pressure;Samples;Min_cycle;Max_cycle;Signal;HPM_P1;HPM_P2
2021/06/21 00:01:25;;;;;;;14.20;5.25;;;;;;;22.21;59.18;99842.25;5093214;28;20495;-79
2021/06/21 00:03:59;;;;;;;17.42;5.82;;;;;;;22.19;58.75;99848.97;5061976;28;20065;-79
2021/06/21 00:06:25;;;;;;;14.20;6.47;;;;;;;22.17;59.07;99846.44;5059781;28;20130;-80
2021/06/21 00:08:51;;;;;;;11.50;4.70;;;;;;;22.17;58.70;99849.16;5042721;28;20072;-79
2021/06/21 00:11:17;;;;;;;12.95;4.95;;;;;;;22.14;58.60;99849.59;5042742;28;20079;-78
2021/06/21 00:13:43;;;;;;;13.85;5.32;;;;;;;22.14;59.43;99851.50;5059461;28;20078;-78
2021/06/21 00:16:09;;;;;;;15.32;6.68;;;;;;;22.11;60.39;99857.38;5075955;28;20079;-79
2021/06/21 00:18:35;;;;;;;14.90;6.13;;;;;;;22.06;60.58;99851.81;5075921;28;20188;-79
2021/06/21 00:21:01;;;;;;;19.73;6.13;;;;;;;22.04;60.50;99845.78;5042762;28;20512;-79
2021/06/21 00:23:27;;;;;;;21.75;6.68;;;;;;;22.00;60.80;99853.56;5094145;28;20085;-79
2021/06/21 00:25:54;;;;;;;19.48;6.55;;;;;;;22.00;61.00;99850.00;5042450;28;20080;-79
2021/06/21 00:28:19;;;;;;;16.10;6.05;;;;;;;21.95;61.04;99853.41;5042543;28;20036;-79
2021/06/21 00:30:45;;;;;;;16.58;6.00;;;;;;;21.94;60.67;99857.13;5075810;28;20036;-79
2021/06/21 00:33:12;;;;;;;24.23;6.85;;;;;;;21.92;61.20;99853.84;5042402;28;20072;-79
2021/06/21 00:35:38;;;;;;;12.85;6.10;;;;;;;21.89;61.48;99851.59;5058748;28;20397;-79
2021/06/21 00:38:05;;;;;;;18.92;6.63;;;;;;;21.90;61.18;99857.81;5092846;28;20117;-79
2021/06/21 00:40:33;;;;;;;16.27;5.60;;;;;;;21.90;60.15;99857.81;5092909;28;20074;-78
2021/06/21 00:42:59;;;;;;;12.10;4.88;;;;;;;21.87;60.04;99861.81;5093436;28;20050;-79
2021/06/21 00:45:24;;;;;;;17.75;5.07;;;;;;;21.85;60.29;99863.09;5042042;28;20052;-79
2021/06/21 00:47:52;;;;;;;11.77;5.05;;;;;;;21.80;60.42;99860.22;5042195;28;20048;-80
2021/06/21 00:50:18;;;;;;;13.10;5.25;;;;;;;21.79;60.57;99858.59;5059024;28;20067;-80
2021/06/21 00:52:44;;;;;;;13.18;5.80;;;;;;;21.75;61.33;99865.47;5092276;28;20108;-79
2021/06/21 00:55:12;;;;;;;16.30;6.75;;;;;;;21.67;61.99;99856.59;5042027;28;20495;-79
2021/06/21 00:57:39;;;;;;;18.85;6.53;;;;;;;21.56;62.33;99840.25;5058587;28;20043;-79
2021/06/21 01:00:13;;;;;;;21.63;6.85;;;;;;;21.61;62.34;99851.25;5075704;28;20040;-78
2021/06/21 01:02:40;;;;;;;14.90;5.93;;;;;;;21.60;62.07;99858.50;5092156;28;20035;-78
2021/06/21 01:05:08;;;;;;;17.77;6.90;;;;;;;21.60;62.67;99852.31;5041939;28;20044;-79
2021/06/21 01:07:34;;;;;;;11.30;4.50;;;;;;;21.59;61.19;99847.94;5058634;28;20451;-79
2021/06/21 01:10:00;;;;;;;17.75;6.35;;;;;;;21.58;61.47;99849.00;5058442;28;20075;-79
2021/06/21 01:12:48;;;;;;;25.35;7.40;;;;;;;21.62;62.71;99855.59;5058518;28;20044;-79
2021/06/21 01:15:16;;;;;;;19.77;6.35;;;;;;;21.58;62.20;99852.53;5074838;28;20048;-79
2021/06/21 01:17:57;;;;;;;21.25;7.25;;;;;;;21.60;62.59;99863.13;5091622;28;20040;-78
2021/06/21 01:20:23;;;;;;;;;;;;;;;21.59;62.45;99858.75;5041935;28;20511;-78
2021/06/21 01:22:58;;;;;;;24.25;8.07;;;;;;;21.58;62.54;99859.81;5057785;28;19955;-79
2021/06/21 01:25:46;;;;;;;21.15;7.30;;;;;;;21.57;62.73;99853.56;5074743;28;20127;-79
2021/06/21 01:28:31;;;;;;;16.50;6.90;;;;;;;21.59;62.59;99847.94;5074836;28;20507;-78
2021/06/21 01:31:16;;;;;;;19.05;6.93;;;;;;;21.61;61.39;99853.94;5057591;28;20590;-79
2021/06/21 01:33:42;;;;;;;12.60;6.57;;;;;;;21.61;61.19;99853.94;5057667;28;20142;-80
2021/06/21 01:36:10;;;;;;;18.02;6.35;;;;;;;21.63;61.36;99852.66;5041206;28;20059;-82
2021/06/21 01:38:41;;;;;;;19.63;9.02;;;;;;;21.66;62.98;99848.69;5057599;28;20048;-80
2021/06/21 01:41:11;;;;;;;23.30;9.00;;;;;;;21.66;62.50;99856.81;5074650;28;20073;-78
2021/06/21 01:43:41;;;;;;;21.55;7.97;;;;;;;21.66;62.53;99859.50;5073910;28;20043;-80
2021/06/21 01:46:11;;;;;;;19.67;7.97;;;;;;;21.61;62.89;99852.06;5089824;28;20086;-80
2021/06/21 01:48:40;;;;;;;21.73;8.32;;;;;;;21.70;62.41;99861.53;5073410;28;20454;-79
2021/06/21 01:51:06;;;;;;;15.60;7.68;;;;;;;21.69;61.67;99867.97;5073396;28;20051;-79
2021/06/21 01:53:33;;;;;;;24.05;7.55;;;;;;;21.69;61.64;99859.06;5040137;28;20120;-79
2021/06/21 01:56:02;;;;;;;21.27;7.95;;;;;;;21.69;61.77;99864.47;5040142;28;20599;-78
2021/06/21 01:58:32;;;;;;;17.17;7.40;;;;;;;21.66;61.68;99864.91;5056698;28;20090;-77
2021/06/21 02:01:00;;;;;;;17.08;8.05;;;;;;;21.70;61.79;99872.38;5073997;28;20529;-78
2021/06/21 02:03:26;;;;;;;21.67;7.60;;;;;;;21.70;62.03;99866.94;5073983;28;20553;-78
2021/06/21 02:05:52;;;;;;;17.17;8.60;;;;;;;21.73;62.18;99862.97;5057350;28;20420;-78
2021/06/21 02:08:20;;;;;;;24.00;8.90;;;;;;;21.81;62.17;99869.97;5040898;28;20044;-78
2021/06/21 02:10:49;;;;;;;23.08;8.88;;;;;;;21.86;61.94;99867.44;5094729;28;20070;-78
2021/06/21 02:13:15;;;;;;;23.23;9.30;;;;;;;21.92;62.22;99875.47;5078124;28;20555;-78
2021/06/21 02:15:41;;;;;;;25.70;9.15;;;;;;;21.98;61.42;99874.59;5073471;28;20100;-79
2021/06/21 02:18:08;;;;;;;21.67;8.38;;;;;;;22.02;61.69;99866.84;5040836;28;20146;-79
2021/06/21 02:20:35;;;;;;;19.17;9.45;;;;;;;22.02;61.61;99862.25;5090425;28;20047;-78
2021/06/21 02:23:01;;;;;;;22.70;9.60;;;;;;;22.05;61.03;99866.41;5056511;28;20946;-77
2021/06/21 02:25:28;;;;;;;18.00;9.13;;;;;;;22.08;61.68;99864.03;5056919;28;20035;-78
2021/06/21 02:27:54;;;;;;;24.55;10.38;;;;;;;22.11;61.65;99869.00;5073478;28;20612;-78
2021/06/21 02:30:20;;;;;;;20.40;9.73;;;;;;;22.12;60.94;99867.13;5055327;28;20040;-79
2021/06/21 02:32:47;;;;;;;19.73;11.30;;;;;;;22.12;61.01;99873.38;5055635;28;20051;-78
2021/06/21 02:35:15;;;;;;;23.73;9.85;;;;;;;22.02;62.10;99856.84;5072062;28;20130;-79
2021/06/21 02:37:42;;;;;;;21.80;10.05;;;;;;;22.13;61.38;99868.78;5072330;28;20048;-79
2021/06/21 02:40:13;;;;;;;20.48;10.40;;;;;;;22.16;60.84;99869.16;5089047;28;20130;-79
2021/06/21 02:42:39;;;;;;;20.10;9.35;;;;;;;22.20;61.06;99875.78;5090902;28;20046;-79
2021/06/21 02:45:06;;;;;;;18.48;8.90;;;;;;;22.23;59.98;99861.81;5073185;28;20044;-79
2021/06/21 02:47:32;;;;;;;33.75;9.80;;;;;;;22.24;61.39;99868.00;5056740;28;20152;-78
2021/06/21 02:49:59;;;;;;;26.02;10.48;;;;;;;22.28;61.74;99866.53;5056218;28;20047;-78
2021/06/21 02:52:58;;;;;;;23.80;10.07;;;;;;;22.21;61.16;99842.25;5056123;28;20036;-80
2021/06/21 02:56:17;;;;;;;17.27;9.98;;;;;;;22.36;60.98;99863.47;5054228;28;20050;-79
2021/06/21 02:58:44;;;;;;;25.58;11.15;;;;;;;22.39;61.24;99863.84;5020903;28;20040;-82
2021/06/21 03:01:12;;;;;;;22.45;11.85;;;;;;;22.42;60.08;99865.31;5071000;28;20044;-80
2021/06/21 03:03:39;;;;;;;20.25;13.10;;;;;;;22.39;59.03;99868.44;5087244;28;20039;-78
2021/06/21 03:06:06;;;;;;;25.20;14.07;;;;;;;22.33;59.89;99881.00;5085464;28;20048;-80
2021/06/21 03:08:32;;;;;;;33.22;13.88;;;;;;;22.24;60.53;99868.84;5086409;28;20052;-79
2021/06/21 03:10:58;;;;;;;28.42;13.52;;;;;;;22.20;60.34;99874.94;5072209;28;20074;-79
2021/06/21 03:13:25;;;;;;;23.58;14.60;;;;;;;22.18;60.17;99874.34;5089487;28;20052;-79
2021/06/21 03:15:52;;;;;;;38.75;17.15;;;;;;;22.15;60.97;99880.19;5089276;28;20050;-80
2021/06/21 03:18:21;;;;;;;34.25;16.42;;;;;;;22.07;61.52;99889.47;5089550;28;20051;-79
2021/06/21 03:20:58;;;;;;;38.15;18.63;;;;;;;22.02;62.91;99894.72;5072394;28;20079;-79
2021/06/21 03:23:27;;;;;;;32.10;17.23;;;;;;;21.93;62.67;99890.66;5055800;28;20048;-78
2021/06/21 03:25:55;;;;;;;34.33;17.05;;;;;;;21.96;63.06;99897.50;5089303;28;20054;-79
2021/06/21 03:28:23;;;;;;;37.15;17.95;;;;;;;21.96;63.31;99894.81;5071350;28;20500;-79
2021/06/21 03:31:08;;;;;;;41.85;17.80;;;;;;;21.98;63.62;99893.50;5072152;28;20102;-79
2021/06/21 03:33:35;;;;;;;27.05;15.35;;;;;;;21.92;62.29;99885.47;5055442;28;20051;-80
2021/06/21 03:36:05;;;;;;;38.83;17.45;;;;;;;21.96;62.89;99903.72;5089116;28;20063;-78
2021/06/21 03:38:32;;;;;;;29.48;15.93;;;;;;;21.98;63.02;99904.34;5039278;28;20142;-78
2021/06/21 03:41:00;;;;;;;28.50;15.43;;;;;;;22.08;62.39;99901.13;5038539;28;20052;-77
2021/06/21 03:43:27;;;;;;;29.58;15.90;;;;;;;22.10;61.84;99904.41;5055807;28;20108;-77
2021/06/21 03:45:57;;;;;;;34.50;15.82;;;;;;;22.09;61.46;99908.16;5071914;28;20493;-76
2021/06/21 03:48:23;;;;;;;36.72;15.55;;;;;;;22.08;61.47;99910.03;5055607;28;20492;-75
2021/06/21 03:50:49;;;;;;;27.63;12.52;;;;;;;22.10;60.36;99907.09;5055229;28;20047;-72
2021/06/21 03:53:16;;;;;;;25.10;12.70;;;;;;;22.10;60.36;99910.66;5038899;28;20071;-74
2021/06/21 03:55:42;;;;;;;21.45;13.63;;;;;;;22.15;60.02;99904.56;5072249;28;20120;-72
2021/06/21 03:58:09;;;;;;;25.58;11.65;;;;;;;22.21;59.65;99912.59;5071979;28;20051;-74
2021/06/21 04:00:36;;;;;;;23.95;12.35;;;;;;;22.29;59.28;99904.19;5038497;28;20462;-74
2021/06/21 04:03:03;;;;;;;24.50;11.60;;;;;;;22.31;58.99;99891.22;5088653;28;20043;-74
2021/06/21 04:05:30;;;;;;;22.80;13.02;;;;;;;22.50;58.67;99916.41;5055430;28;20116;-74
2021/06/21 04:07:55;;;;;;;26.08;11.75;;;;;;;22.55;58.00;99909.28;5038165;28;20400;-71
2021/06/21 04:10:23;;;;;;;27.38;13.10;;;;;;;22.63;58.46;99914.38;5072291;28;20067;-70
2021/06/21 04:12:50;;;;;;;35.95;14.15;;;;;;;22.66;58.54;99911.22;5038783;28;20063;-72
2021/06/21 04:15:18;;;;;;;33.28;15.85;;;;;;;22.73;59.26;99906.53;5072012;28;20130;-72
2021/06/21 04:17:44;;;;;;;27.20;14.18;;;;;;;22.73;58.72;99901.13;5086102;28;20063;-71
2021/06/21 04:20:14;;;;;;;38.60;16.23;;;;;;;22.86;58.95;99892.78;5051773;28;20102;-72
2021/06/21 04:22:40;;;;;;;37.55;16.65;;;;;;;23.09;59.16;99914.53;5052396;28;20036;-71
2021/06/21 04:25:09;;;;;;;30.05;16.35;;;;;;;23.23;58.71;99915.97;5051190;28;20528;-72
2021/06/21 04:27:35;;;;;;;39.28;15.45;;;;;;;23.37;58.40;99910.38;5086276;28;20066;-71
2021/06/21 04:30:01;;;;;;;29.60;15.13;;;;;;;23.41;58.66;99900.72;5052913;28;20555;-71
2021/06/21 04:32:27;;;;;;;25.02;13.07;;;;;;;23.63;57.36;99920.78;5086936;28;20166;-71
2021/06/21 04:34:52;;;;;;;29.60;13.57;;;;;;;23.77;55.93;99917.56;5088309;28;20093;-71
2021/06/21 04:37:18;;;;;;;27.35;13.18;;;;;;;23.93;55.43;99908.75;5054970;28;20142;-71
2021/06/21 04:39:44;;;;;;;30.23;13.27;;;;;;;24.09;55.37;99918.06;5092068;28;20122;-71
2021/06/21 04:42:10;;;;;;;31.85;12.48;;;;;;;24.14;55.16;99900.00;5092383;28;20052;-72
2021/06/21 04:44:35;;;;;;;26.00;12.90;;;;;;;24.39;54.54;99913.28;5075445;28;20051;-72
2021/06/21 04:47:01;;;;;;;26.08;12.35;;;;;;;24.53;54.04;99917.38;5092036;28;20130;-72
2021/06/21 04:49:27;;;;;;;37.92;12.93;;;;;;;24.66;53.57;99915.22;5075561;28;20079;-71
2021/06/21 04:51:53;;;;;;;32.67;12.70;;;;;;;24.79;52.47;99916.81;5075452;28;20101;-71
2021/06/21 04:54:19;;;;;;;21.67;9.32;;;;;;;24.97;51.33;99921.25;5071550;28;20036;-70
2021/06/21 04:56:45;;;;;;;23.65;9.57;;;;;;;25.03;51.42;99904.78;5088916;28;20040;-72
2021/06/21 04:59:10;;;;;;;13.02;7.68;;;;;;;25.24;49.75;99919.53;5091543;28;20040;-74
2021/06/21 05:01:36;;;;;;;24.55;8.48;;;;;;;25.41;50.90;99928.56;5091344;28;20419;-71
2021/06/21 05:04:04;;;;;;;28.77;8.65;;;;;;;25.56;50.92;99921.47;5091451;28;20150;-71
2021/06/21 05:06:37;;;;;;;20.20;7.22;;;;;;;25.71;49.66;99924.44;5091200;28;20040;-77
2021/06/21 05:09:07;;;;;;;20.85;6.63;;;;;;;25.82;48.41;99923.50;5074931;28;20079;-72
2021/06/21 05:11:33;;;;;;;16.58;6.80;;;;;;;25.89;48.44;99926.88;5091564;28;20064;-72
2021/06/21 05:14:00;;;;;;;33.10;7.43;;;;;;;26.00;48.26;99928.69;5092240;28;20134;-73
2021/06/21 05:16:26;;;;;;;16.83;5.13;;;;;;;26.05;47.45;99928.78;5092173;28;20043;-75
2021/06/21 05:18:52;;;;;;;14.20;4.65;;;;;;;26.18;47.55;99925.69;5074423;28;20035;-73
2021/06/21 05:21:18;;;;;;;15.07;5.38;;;;;;;26.33;47.69;99925.88;5057801;28;20505;-71
2021/06/21 05:23:44;;;;;;;14.43;5.00;;;;;;;26.48;46.92;99921.72;5090804;28;20508;-78
2021/06/21 05:26:09;;;;;;;15.20;4.10;;;;;;;26.59;46.25;99916.13;5091216;28;20127;-72
2021/06/21 05:28:35;;;;;;;15.07;3.92;;;;;;;26.62;44.76;99906.63;5057591;28;20048;-72
2021/06/21 05:31:01;;;;;;;12.95;4.90;;;;;;;26.79;45.65;99923.72;5074523;28;20036;-73
2021/06/21 05:33:27;;;;;;;18.00;4.18;;;;;;;26.84;44.82;99919.16;5091079;28;20400;-73
2021/06/21 05:35:53;;;;;;;13.55;4.82;;;;;;;26.92;44.64;99924.16;5091899;28;20608;-73
2021/06/21 05:38:18;;;;;;;16.83;4.10;;;;;;;26.98;43.27;99923.13;5092228;28;20043;-72
2021/06/21 05:40:44;;;;;;;15.48;4.07;;;;;;;27.01;42.19;99927.22;5090636;28;20043;-72
2021/06/21 05:43:10;;;;;;;12.45;3.70;;;;;;;26.97;42.67;99923.38;5090836;28;20047;-72
2021/06/21 05:45:36;;;;;;;9.68;3.10;;;;;;;26.90;42.42;99909.13;5090622;28;20044;-73
2021/06/21 05:48:03;;;;;;;8.38;2.22;;;;;;;26.98;40.41;99930.47;5091766;28;20126;-74
2021/06/21 05:50:29;;;;;;;7.90;2.58;;;;;;;27.00;41.42;99925.59;5090869;28;20048;-74
2021/06/21 05:52:55;;;;;;;6.90;2.13;;;;;;;27.00;39.95;99911.97;5090755;28;20101;-71
2021/06/21 05:55:23;;;;;;;10.95;2.17;;;;;;;27.12;39.88;99918.06;5088990;28;20040;-73
2021/06/21 05:57:49;;;;;;;11.25;2.63;;;;;;;27.13;40.33;99920.53;5071531;28;20078;-72
2021/06/21 06:00:18;;;;;;;18.42;2.58;;;;;;;27.15;40.86;99923.00;5089629;28;20102;-71
2021/06/21 06:02:44;;;;;;;10.45;2.78;;;;;;;27.20;40.75;99923.88;5088575;28;20039;-74
2021/06/21 06:05:11;;;;;;;12.80;3.25;;;;;;;27.31;40.48;99916.63;5070708;28;20046;-72
2021/06/21 06:07:36;;;;;;;10.52;2.47;;;;;;;27.34;39.92;99918.88;5087387;28;20050;-73
2021/06/21 06:10:03;;;;;;;9.70;2.60;;;;;;;27.68;39.31;99914.75;5087988;28;20048;-72
2021/06/21 06:12:30;;;;;;;6.55;2.50;;;;;;;28.15;38.52;99903.88;5087212;28;20036;-72
2021/06/21 06:14:55;;;;;;;7.80;2.25;;;;;;;28.75;37.20;99920.53;5087713;28;20392;-73
2021/06/21 06:17:21;;;;;;;12.35;2.85;;;;;;;29.22;36.80;99916.56;5087485;28;20063;-69
2021/06/21 06:19:47;;;;;;;8.52;2.95;;;;;;;29.68;36.26;99911.91;5070089;28;20044;-72
2021/06/21 06:22:13;;;;;;;9.82;2.47;;;;;;;30.01;35.00;99921.44;5087044;28;20519;-70
2021/06/21 06:24:39;;;;;;;10.30;2.45;;;;;;;30.20;34.02;99917.84;5069929;28;20031;-70
2021/06/21 06:27:05;;;;;;;15.48;2.08;;;;;;;30.12;34.26;99923.88;5088572;28;20407;-71
2021/06/21 06:29:33;;;;;;;8.65;3.40;;;;;;;29.98;34.99;99924.75;5070131;28;20040;-72
2021/06/21 06:32:00;;;;;;;16.23;2.60;;;;;;;30.27;34.18;99928.53;5086827;28;20044;-75
2021/06/21 06:34:26;;;;;;;9.88;2.92;;;;;;;30.38;34.06;99911.78;5087537;28;20032;-72
2021/06/21 06:36:53;;;;;;;11.93;2.90;;;;;;;30.72;33.71;99931.06;5053664;28;20059;-69
2021/06/21 06:39:20;;;;;;;11.43;2.75;;;;;;;31.00;33.25;99922.13;5050501;28;20045;-71
2021/06/21 06:41:46;;;;;;;14.05;3.05;;;;;;;31.16;33.43;99915.47;5069476;28;20073;-71
2021/06/21 06:44:12;;;;;;;11.10;3.63;;;;;;;31.55;33.09;99913.53;5070309;28;20050;-72
2021/06/21 06:46:38;;;;;;;14.20;3.40;;;;;;;31.75;33.06;99915.25;5069139;28;20420;-71
2021/06/21 06:49:07;;;;;;;15.52;3.38;;;;;;;31.60;33.40;99915.41;5070383;28;20086;-69
2021/06/21 06:51:41;;;;;;;20.73;4.10;;;;;;;31.70;33.91;99909.81;5052749;28;20403;-72
2021/06/21 06:56:59;;;;;;;5.28;2.70;;;;;;;31.31;34.07;99904.38;5069345;28;20044;-72
2021/06/21 06:59:35;;;;;;;8.75;2.53;;;;;;;30.96;33.92;99908.19;5038046;28;20136;-71
2021/06/21 07:02:06;;;;;;;9.18;2.90;;;;;;;30.71;34.71;99899.25;5052221;28;20070;-71
2021/06/21 07:04:32;;;;;;;6.47;2.35;;;;;;;31.27;33.63;99897.81;5052029;28;20044;-71
2021/06/21 07:06:58;;;;;;;8.18;2.45;;;;;;;31.71;32.98;99892.22;5052584;28;20131;-72
2021/06/21 07:09:26;;;;;;;18.27;2.80;;;;;;;31.96;32.08;99901.06;5070646;28;20040;-73
2021/06/21 07:11:52;;;;;;;13.18;2.25;;;;;;;31.72;31.97;99900.16;5052579;28;20045;-72
2021/06/21 07:14:19;;;;;;;8.60;2.35;;;;;;;32.04;31.59;99894.94;5070405;28;20048;-72
2021/06/21 07:16:48;;;;;;;6.78;2.20;;;;;;;32.39;31.71;99905.53;5052203;28;20458;-71
2021/06/21 07:19:15;;;;;;;14.40;2.53;;;;;;;32.62;30.97;99904.69;5068662;28;20063;-69
2021/06/21 07:21:41;;;;;;;7.90;2.50;;;;;;;32.72;30.51;99891.91;5059969;28;20045;-70
2021/06/21 07:24:08;;;;;;;10.95;3.92;;;;;;;33.08;29.75;99904.84;5068879;28;20079;-71
2021/06/21 07:26:35;;;;;;;2.70;1.42;;;;;;;33.37;28.63;99907.41;5051858;28;20040;-71
2021/06/21 07:29:00;;;;;;;7.57;1.85;;;;;;;32.99;29.15;99894.81;5052036;28;20076;-70
2021/06/21 07:31:26;;;;;;;13.25;2.63;;;;;;;33.57;28.44;99904.34;5068771;28;20087;-71
2021/06/21 07:33:52;;;;;;;11.18;2.55;;;;;;;34.46;27.28;99905.72;5068763;28;20044;-72
2021/06/21 07:36:18;;;;;;;7.88;2.38;;;;;;;35.37;25.97;99897.84;5070160;28;20052;-70
2021/06/21 07:38:44;;;;;;;9.23;2.00;;;;;;;36.21;24.94;99903.34;5052370;28;20047;-70
2021/06/21 07:41:10;;;;;;;5.45;2.55;;;;;;;37.00;23.70;99900.16;5054941;28;20634;-72
2021/06/21 07:43:35;;;;;;;7.15;2.00;;;;;;;38.26;22.22;99909.72;5077380;28;20040;-72
2021/06/21 07:46:03;;;;;;;9.07;2.42;;;;;;;39.58;20.83;99912.56;5062300;28;20711;-71
2021/06/21 07:48:29;;;;;;;6.43;1.50;;;;;;;40.88;19.48;99914.19;5077421;28;20040;-72
2021/06/21 07:50:54;;;;;;;13.07;1.60;;;;;;;41.54;17.80;99916.22;5078273;28;20430;-72
2021/06/21 07:53:20;;;;;;;10.40;1.67;;;;;;;42.38;16.95;99905.72;5067912;28;20094;-72
2021/06/21 07:55:46;;;;;;;9.23;1.80;;;;;;;43.80;15.35;99909.22;5062832;28;20055;-73
2021/06/21 07:58:12;;;;;;;13.60;1.98;;;;;;;45.14;14.36;99906.63;5045998;28;20544;-71
2021/06/21 08:00:39;;;;;;;8.80;1.17;;;;;;;45.92;13.54;99906.31;5074670;28;20461;-73
2021/06/21 08:03:09;;;;;;;7.13;1.60;;;;;;;46.11;12.61;99911.72;5084589;28;20043;-72
2021/06/21 08:05:35;;;;;;;2.40;1.30;;;;;;;44.77;14.34;99905.69;5079994;28;20045;-72
2021/06/21 08:08:01;;;;;;;6.63;1.73;;;;;;;45.94;13.42;99908.75;5048482;28;20032;-73
2021/06/21 08:10:26;;;;;;;7.55;1.33;;;;;;;46.68;12.44;99903.75;5076873;28;20071;-72
2021/06/21 08:12:52;;;;;;;8.15;1.50;;;;;;;47.26;12.10;99905.28;5045507;28;20085;-73
2021/06/21 08:15:18;;;;;;;8.80;1.80;;;;;;;48.94;10.71;99900.97;5080051;28;20037;-72
2021/06/21 08:17:44;;;;;;;4.63;1.23;;;;;;;50.31;9.95;99906.66;5049342;28;20809;-73
2021/06/21 08:20:11;;;;;;;10.93;1.48;;;;;;;51.33;9.63;99910.41;5092295;28;20124;-73
2021/06/21 08:22:40;;;;;;;5.57;1.60;;;;;;;52.01;8.52;99902.56;5092032;28;20036;-72
2021/06/21 08:25:07;;;;;;;10.52;1.70;;;;;;;52.41;8.58;99898.63;5073940;28;20040;-72
2021/06/21 08:27:34;;;;;;;7.72;1.67;;;;;;;52.79;8.32;99897.09;5090637;28;20047;-71
2021/06/21 08:30:00;;;;;;;6.95;1.30;;;;;;;53.29;7.33;99884.31;5070193;28;20032;-71
2021/06/21 08:32:27;;;;;;;8.68;1.50;;;;;;;51.63;7.95;99897.03;5070957;28;20036;-72
2021/06/21 08:34:53;;;;;;;4.13;1.40;;;;;;;49.75;9.41;99883.69;5074981;28;20043;-71
2021/06/21 08:37:21;;;;;;;9.82;1.75;;;;;;;50.17;9.77;99892.63;5075064;28;20052;-72
2021/06/21 08:39:48;;;;;;;8.57;1.90;;;;;;;49.82;10.05;99881.59;5092219;28;20290;-73
2021/06/21 08:42:13;;;;;;;13.68;1.90;;;;;;;50.84;9.06;99874.22;5096266;28;20071;-72
2021/06/21 08:44:41;;;;;;;12.77;1.90;;;;;;;50.99;9.32;99884.94;5111460;28;20406;-71
2021/06/21 08:47:12;;;;;;;11.80;1.83;;;;;;;50.28;9.52;99887.69;5111955;28;20047;-71
2021/06/21 08:49:43;;;;;;;10.55;1.40;;;;;;;50.66;9.03;99874.41;5095233;28;20134;-72
2021/06/21 08:52:09;;;;;;;12.45;1.70;;;;;;;50.23;10.17;99887.31;5111611;28;20054;-73
2021/06/21 08:54:36;;;;;;;8.20;1.55;;;;;;;49.91;10.08;99873.44;5093152;28;20070;-72
2021/06/21 08:57:04;;;;;;;8.13;2.00;;;;;;;51.16;8.97;99878.28;5102890;28;20044;-71
2021/06/21 08:59:30;;;;;;;;;;;;;;;52.61;8.16;99885.28;5112945;28;20073;-71
2021/06/21 09:01:55;;;;;;;5.32;1.35;;;;;;;50.08;9.68;99861.22;5112368;28;20342;-72
2021/06/21 09:04:23;;;;;;;10.20;1.58;;;;;;;49.79;9.54;99871.13;5112954;28;20383;-71
2021/06/21 09:06:49;;;;;;;9.90;1.75;;;;;;;50.32;9.16;99881.97;5111962;28;20043;-72
2021/06/21 09:09:14;;;;;;;13.52;1.90;;;;;;;50.42;9.43;99872.63;5111148;28;20050;-70
2021/06/21 09:11:46;;;;;;;11.40;2.08;;;;;;;50.93;9.24;99868.84;5094152;28;20150;-70
2021/06/21 09:14:24;;;;;;;11.10;1.80;;;;;;;52.05;8.30;99874.94;5111831;28;20041;-70
2021/06/21 09:16:54;;;;;;;6.85;1.45;;;;;;;51.94;8.88;99860.94;5052805;28;20047;-72
2021/06/21 09:19:20;;;;;;;9.45;1.40;;;;;;;52.81;8.36;99869.09;5064128;28;20094;-72
2021/06/21 09:21:46;;;;;;;6.18;1.60;;;;;;;52.98;8.20;99862.25;5047620;28;20052;-72
2021/06/21 09:24:16;;;;;;;4.55;1.50;;;;;;;51.87;8.74;99863.91;5063273;28;20044;-72
2021/06/21 09:26:43;;;;;;;4.22;1.30;;;;;;;50.42;9.42;99859.28;5045135;28;20039;-73
2021/06/21 09:29:09;;;;;;;10.05;1.48;;;;;;;49.79;9.98;99859.03;5047595;28;20036;-73
2021/06/21 09:31:53;;;;;;;4.65;1.50;;;;;;;49.32;10.18;99832.28;5061558;28;20786;-72
2021/06/21 09:34:22;;;;;;;5.53;1.35;;;;;;;51.04;9.37;99849.72;5063819;28;20123;-72
2021/06/21 09:36:47;;;;;;;;;;;;;;;50.89;9.17;99857.56;5079061;28;20059;-74
2021/06/21 09:39:28;;;;;;;12.27;1.40;;;;;;;51.88;8.91;99859.81;5080205;28;19920;-73
2021/06/21 09:42:10;;;;;;;9.85;1.40;;;;;;;51.68;8.68;99861.75;5073205;28;20036;-70
2021/06/21 09:44:43;;;;;;;9.30;1.42;;;;;;;49.46;9.85;99854.78;5080283;28;20048;-71
2021/06/21 09:47:38;;;;;;;9.63;1.50;;;;;;;50.84;9.00;99855.19;5079620;28;20686;-70
2021/06/21 09:50:16;;;;;;;6.30;1.25;;;;;;;52.25;7.90;99870.13;5066470;28;20121;-71
2021/06/21 09:53:00;;;;;;;8.88;1.27;;;;;;;50.80;8.91;99854.44;5069962;28;20112;-71
2021/06/21 09:55:34;;;;;;;6.70;1.35;;;;;;;49.78;9.96;99849.72;5053259;28;20049;-71
2021/06/21 09:58:11;;;;;;;5.05;1.52;;;;;;;50.68;9.59;99843.69;5034696;28;20484;-71
2021/06/21 10:00:43;;;;;;;8.35;1.50;;;;;;;52.13;8.36;99848.88;5067844;28;20045;-70
2021/06/21 10:03:10;;;;;;;10.35;1.42;;;;;;;51.86;9.05;99843.25;5050675;28;20060;-72
2021/06/21 10:05:40;;;;;;;5.22;1.58;;;;;;;52.78;8.61;99835.91;5076916;28;20071;-70
2021/06/21 10:08:07;;;;;;;7.70;1.30;;;;;;;53.45;8.37;99836.03;5077965;28;20036;-72
2021/06/21 10:10:34;;;;;;;8.43;1.10;;;;;;;53.87;8.27;99839.09;5078029;28;20131;-71
2021/06/21 10:12:59;;;;;;;5.50;1.25;;;;;;;53.01;8.48;99833.78;5062283;28;20051;-74
2021/06/21 10:15:26;;;;;;;9.85;1.55;;;;;;;53.81;7.84;99832.34;5077601;28;20419;-72
2021/06/21 10:17:51;;;;;;;5.93;1.33;;;;;;;54.63;7.57;99833.41;5063508;28;20048;-72
2021/06/21 10:20:17;;;;;;;2.28;1.08;;;;;;;53.58;7.26;99832.50;5061991;28;20043;-72
2021/06/21 10:22:43;;;;;;;4.95;1.10;;;;;;;52.03;8.19;99832.03;5045122;28;20510;-73
2021/06/21 10:25:11;;;;;;;12.20;1.20;;;;;;;52.71;8.17;99827.53;5078256;28;20090;-72
2021/06/21 10:27:40;;;;;;;4.60;1.30;;;;;;;52.87;7.95;99819.88;5078114;28;20035;-72
2021/06/21 10:30:18;;;;;;;8.68;1.00;;;;;;;53.15;7.80;99832.66;5048169;28;20043;-72
2021/06/21 10:32:46;;;;;;;4.13;1.08;;;;;;;50.95;8.64;99827.56;5078638;28;20135;-71
2021/06/21 10:35:13;;;;;;;4.22;1.15;;;;;;;48.90;10.13;99824.00;5051131;28;20044;-72
2021/06/21 10:37:53;;;;;;;4.95;1.30;;;;;;;47.60;11.18;99810.09;5062740;28;20385;-71
2021/06/21 10:40:19;;;;;;;8.50;1.23;;;;;;;48.07;10.72;99800.44;5087957;28;20040;-71
2021/06/21 10:42:45;;;;;;;5.70;1.20;;;;;;;48.93;10.25;99792.94;5089593;28;20055;-72
2021/06/21 10:45:23;;;;;;;9.73;1.50;;;;;;;48.65;9.79;99798.75;5063119;28;20076;-71
2021/06/21 10:47:51;;;;;;;7.03;1.50;;;;;;;46.93;9.92;99809.91;5061821;28;20037;-71
2021/06/21 10:50:18;;;;;;;8.32;1.30;;;;;;;45.95;10.92;99798.00;5075650;28;20040;-71
2021/06/21 10:52:51;;;;;;;3.17;1.30;;;;;;;47.07;11.08;99801.47;5078084;28;20042;-69
2021/06/21 10:58:20;;;;;;;4.47;0.80;;;;;;;46.44;9.67;99801.16;5065148;28;20053;-71
2021/06/21 11:00:48;;;;;;;3.40;1.00;;;;;;;45.16;10.80;99794.84;5076921;28;20086;-71
2021/06/21 11:03:23;;;;;;;2.90;1.10;;;;;;;43.94;12.43;99791.91;5075361;28;20044;-71
2021/06/21 11:05:50;;;;;;;7.05;1.20;;;;;;;42.93;13.76;99790.81;5079150;28;20044;-70
2021/06/21 11:08:17;;;;;;;8.27;1.20;;;;;;;41.38;14.58;99789.84;5077726;28;20040;-70
2021/06/21 11:10:44;;;;;;;3.42;1.10;;;;;;;40.53;16.29;99793.31;5078764;28;20071;-70
2021/06/21 11:13:35;;;;;;;8.18;1.15;;;;;;;39.62;17.82;99782.78;5065058;28;20040;-70
2021/06/21 11:16:13;;;;;;;6.05;1.42;;;;;;;38.78;18.27;99789.69;5080158;28;20040;-69
2021/06/21 11:18:39;;;;;;;6.18;1.45;;;;;;;38.26;19.62;99771.78;5078780;28;20036;-70
2021/06/21 11:21:19;;;;;;;4.30;1.77;;;;;;;38.21;19.62;99774.75;5060676;28;20040;-70
2021/06/21 11:23:46;;;;;;;7.50;1.30;;;;;;;38.13;20.45;99775.66;5045568;28;20048;-69
2021/06/21 11:26:12;;;;;;;9.68;1.40;;;;;;;37.90;20.62;99771.50;5077036;28;20508;-69
2021/06/21 11:28:42;;;;;;;7.60;1.70;;;;;;;37.58;21.10;99776.84;5078121;28;20036;-69
2021/06/21 11:31:28;;;;;;;;;;;;;;;37.02;20.33;99770.47;5077676;28;20028;-70
2021/06/21 11:34:14;;;;;;;9.52;1.40;;;;;;;35.84;21.68;99771.97;5079180;28;19921;-69
2021/06/21 11:36:48;;;;;;;9.27;1.42;;;;;;;35.58;21.59;99782.88;5061530;28;20047;-69
2021/06/21 11:39:24;;;;;;;3.22;1.48;;;;;;;35.49;22.01;99782.03;5071443;28;20703;-69
2021/06/21 11:42:06;;;;;;;6.85;1.48;;;;;;;35.17;22.37;99782.31;5078280;28;20052;-70